DLY606 EDMO-EDXW
Flight info
| Callsign | DLY606 |
|---|---|
| Flight time | 1h 9m |
| Altitude | 40000 |
| Route | MAH2R MAH M726 UPALA Y102 ALIBU DCT MASEK/N0455F390 DCT ELNAT/N0455F380 P605 NOLGO DCT BADOS DCT OLDIP |
| Aircraft | CL60/M-SBDE1E2E3FGHIJ1J4J5J7M3RWXYZ/LB1V1D1 |
Departure
| Time | 2026-05-05 15:17 |
|---|---|
| Airport | Oberpfaffenhofen Airport (EDMO) |
Arrival
| Time | 2026-05-05 16:26 |
|---|---|
| Airport | Westerland Sylt Airport (EDXW) |
| Time | Latitude | Longitude | Altitude | Speed | Heading |
|---|---|---|---|---|---|
| 2026-05-05 15:00 | 48.08776 | 11.28614 | 1927 ft | 0 kts | 127° |
| 2026-05-05 15:13 | 48.08776 | 11.28616 | 1927 ft | 1 kts | 127° |
| 2026-05-05 15:13 | 48.08763 | 11.28641 | 1927 ft | 4 kts | 124° |
| 2026-05-05 15:13 | 48.08775 | 11.28695 | 1927 ft | 7 kts | 40° |
| 2026-05-05 15:14 | 48.08824 | 11.28762 | 1927 ft | 11 kts | 44° |
| 2026-05-05 15:14 | 48.08858 | 11.28849 | 1927 ft | 9 kts | 80° |
| 2026-05-05 15:14 | 48.08860 | 11.28966 | 1927 ft | 12 kts | 89° |
| 2026-05-05 15:14 | 48.08861 | 11.29117 | 1927 ft | 15 kts | 89° |
| 2026-05-05 15:15 | 48.08861 | 11.29211 | 1927 ft | 5 kts | 89° |
| 2026-05-05 15:15 | 48.08860 | 11.29275 | 1927 ft | 5 kts | 114° |
| 2026-05-05 15:15 | 48.08834 | 11.29267 | 1927 ft | 3 kts | 250° |
| 2026-05-05 15:15 | 48.08823 | 11.29243 | 1927 ft | 0 kts | 219° |
| 2026-05-05 15:16 | 48.08818 | 11.29236 | 1927 ft | 1 kts | 219° |
| 2026-05-05 15:16 | 48.08816 | 11.29234 | 1927 ft | 1 kts | 219° |
| 2026-05-05 15:16 | 48.08725 | 11.29112 | 1927 ft | 53 kts | 223° |
| 2026-05-05 15:16 | 48.08228 | 11.28435 | 1927 ft | 131 kts | 222° |
| 2026-05-05 15:17 | 48.07475 | 11.27411 | 2400 ft | 151 kts | 223° |
| 2026-05-05 15:17 | 48.06693 | 11.26401 | 3126 ft | 158 kts | 221° |
| 2026-05-05 15:17 | 48.05841 | 11.25265 | 3824 ft | 170 kts | 224° |
| 2026-05-05 15:17 | 48.04913 | 11.23959 | 4326 ft | 197 kts | 225° |
| 2026-05-05 15:18 | 48.03875 | 11.22547 | 5012 ft | 215 kts | 218° |
| 2026-05-05 15:18 | 48.02430 | 11.21868 | 5892 ft | 226 kts | 175° |
| 2026-05-05 15:18 | 48.01035 | 11.22784 | 6922 ft | 232 kts | 134° |
| 2026-05-05 15:18 | 48.00359 | 11.24877 | 8160 ft | 232 kts | 94° |
| 2026-05-05 15:19 | 48.00652 | 11.27181 | 9357 ft | 233 kts | 69° |
| 2026-05-05 15:19 | 48.01272 | 11.29424 | 10414 ft | 242 kts | 63° |
| 2026-05-05 15:19 | 48.02342 | 11.31401 | 11471 ft | 252 kts | 38° |
| 2026-05-05 15:19 | 48.03925 | 11.32493 | 12484 ft | 260 kts | 7° |
| 2026-05-05 15:20 | 48.05723 | 11.32522 | 13514 ft | 265 kts | 355° |
| 2026-05-05 15:20 | 48.07659 | 11.32376 | 13833 ft | 304 kts | 356° |
| 2026-05-05 15:20 | 48.09958 | 11.32222 | 13836 ft | 352 kts | 356° |
| 2026-05-05 15:20 | 48.12516 | 11.32057 | 14094 ft | 385 kts | 356° |
| 2026-05-05 15:21 | 48.15248 | 11.31884 | 14830 ft | 402 kts | 356° |
| 2026-05-05 15:21 | 48.18086 | 11.31704 | 15796 ft | 410 kts | 356° |
| 2026-05-05 15:21 | 48.20929 | 11.31525 | 16767 ft | 416 kts | 356° |
| 2026-05-05 15:21 | 48.23864 | 11.31340 | 17501 ft | 426 kts | 356° |
| 2026-05-05 15:22 | 48.26828 | 11.31096 | 18354 ft | 432 kts | 354° |
| 2026-05-05 15:22 | 48.29854 | 11.30638 | 19368 ft | 435 kts | 353° |
| 2026-05-05 15:22 | 48.32849 | 11.30161 | 20283 ft | 438 kts | 353° |
| 2026-05-05 15:22 | 48.35883 | 11.29681 | 21115 ft | 443 kts | 353° |
| 2026-05-05 15:23 | 48.38942 | 11.29196 | 21857 ft | 448 kts | 353° |
| 2026-05-05 15:23 | 48.42051 | 11.28704 | 22536 ft | 452 kts | 353° |
| 2026-05-05 15:23 | 48.45200 | 11.28204 | 23134 ft | 456 kts | 353° |
| 2026-05-05 15:23 | 48.48383 | 11.27698 | 23688 ft | 461 kts | 353° |
| 2026-05-05 15:24 | 48.51556 | 11.27194 | 24199 ft | 465 kts | 353° |
| 2026-05-05 15:24 | 48.54813 | 11.26675 | 24719 ft | 469 kts | 353° |
| 2026-05-05 15:24 | 48.58052 | 11.26159 | 25227 ft | 473 kts | 353° |
| 2026-05-05 15:24 | 48.61340 | 11.25635 | 25714 ft | 476 kts | 353° |
| 2026-05-05 15:25 | 48.64606 | 11.25113 | 26182 ft | 480 kts | 353° |
| 2026-05-05 15:25 | 48.67958 | 11.24576 | 26648 ft | 483 kts | 353° |
| 2026-05-05 15:25 | 48.71293 | 11.24040 | 27087 ft | 487 kts | 353° |
| 2026-05-05 15:25 | 48.74691 | 11.23494 | 27594 ft | 488 kts | 352° |
| 2026-05-05 15:26 | 48.78045 | 11.22955 | 28169 ft | 487 kts | 353° |
| 2026-05-05 15:26 | 48.81404 | 11.22415 | 28791 ft | 485 kts | 352° |
| 2026-05-05 15:26 | 48.84753 | 11.21958 | 29405 ft | 483 kts | 356° |
| 2026-05-05 15:26 | 48.88088 | 11.21920 | 29991 ft | 482 kts | 359° |
| 2026-05-05 15:27 | 48.91404 | 11.21947 | 30562 ft | 481 kts | 359° |
| 2026-05-05 15:27 | 48.94768 | 11.21968 | 31154 ft | 479 kts | 359° |
| 2026-05-05 15:27 | 48.98089 | 11.21988 | 31738 ft | 476 kts | 359° |
| 2026-05-05 15:27 | 49.01355 | 11.22008 | 32304 ft | 474 kts | 358° |
| 2026-05-05 15:28 | 49.04689 | 11.22029 | 32860 ft | 472 kts | 358° |
| 2026-05-05 15:28 | 49.07940 | 11.22048 | 33379 ft | 470 kts | 358° |
| 2026-05-05 15:28 | 49.11169 | 11.22068 | 33859 ft | 469 kts | 358° |
| 2026-05-05 15:28 | 49.14460 | 11.22087 | 34336 ft | 467 kts | 358° |
| 2026-05-05 15:29 | 49.17705 | 11.22078 | 34789 ft | 465 kts | 355° |
| 2026-05-05 15:29 | 49.20923 | 11.21633 | 35224 ft | 462 kts | 348° |
| 2026-05-05 15:29 | 49.24029 | 11.20574 | 35633 ft | 457 kts | 340° |
| 2026-05-05 15:29 | 49.27003 | 11.19012 | 36019 ft | 455 kts | 336° |
| 2026-05-05 15:30 | 49.29944 | 11.17339 | 36379 ft | 455 kts | 336° |
| 2026-05-05 15:30 | 49.32923 | 11.15650 | 36742 ft | 454 kts | 336° |
| 2026-05-05 15:30 | 49.35860 | 11.13983 | 37101 ft | 453 kts | 336° |
| 2026-05-05 15:30 | 49.38851 | 11.12284 | 37457 ft | 452 kts | 336° |
| 2026-05-05 15:31 | 49.41794 | 11.10610 | 37810 ft | 451 kts | 336° |
| 2026-05-05 15:31 | 49.44711 | 11.08949 | 38118 ft | 450 kts | 336° |
| 2026-05-05 15:31 | 49.47655 | 11.07270 | 38414 ft | 450 kts | 336° |
| 2026-05-05 15:31 | 49.50559 | 11.05610 | 38701 ft | 449 kts | 335° |
| 2026-05-05 15:32 | 49.53418 | 11.03649 | 38979 ft | 444 kts | 327° |
| 2026-05-05 15:32 | 49.56049 | 11.01242 | 39204 ft | 443 kts | 324° |
| 2026-05-05 15:32 | 49.58682 | 10.98755 | 39417 ft | 443 kts | 324° |
| 2026-05-05 15:32 | 49.61321 | 10.96270 | 39634 ft | 444 kts | 324° |
| 2026-05-05 15:33 | 49.63968 | 10.93772 | 39828 ft | 445 kts | 324° |
| 2026-05-05 15:33 | 49.69311 | 10.88720 | 39850 ft | 455 kts | 324° |
| 2026-05-05 15:34 | 49.74762 | 10.83555 | 39855 ft | 463 kts | 324° |
| 2026-05-05 15:34 | 49.80265 | 10.78332 | 39861 ft | 465 kts | 325° |
| 2026-05-05 15:35 | 49.85755 | 10.73109 | 39863 ft | 465 kts | 325° |
| 2026-05-05 15:35 | 49.91258 | 10.67861 | 39868 ft | 464 kts | 325° |
| 2026-05-05 15:36 | 49.96782 | 10.62577 | 39869 ft | 464 kts | 325° |
| 2026-05-05 15:36 | 50.02289 | 10.57290 | 39870 ft | 465 kts | 325° |
| 2026-05-05 15:37 | 50.07804 | 10.51981 | 39869 ft | 466 kts | 325° |
| 2026-05-05 15:37 | 50.13298 | 10.46678 | 39868 ft | 466 kts | 325° |
| 2026-05-05 15:38 | 50.18740 | 10.41411 | 39868 ft | 466 kts | 325° |
| 2026-05-05 15:38 | 50.24312 | 10.36020 | 39868 ft | 466 kts | 325° |
| 2026-05-05 15:39 | 50.29838 | 10.30671 | 39867 ft | 467 kts | 324° |
| 2026-05-05 15:39 | 50.35350 | 10.25287 | 39865 ft | 466 kts | 322° |
| 2026-05-05 15:40 | 50.40168 | 10.18695 | 39864 ft | 458 kts | 308° |
| 2026-05-05 15:40 | 50.44381 | 10.11191 | 39864 ft | 457 kts | 307° |
| 2026-05-05 15:41 | 50.48575 | 10.03702 | 39861 ft | 457 kts | 307° |
| 2026-05-05 15:41 | 50.52772 | 9.96187 | 39853 ft | 457 kts | 307° |
| 2026-05-05 15:42 | 50.56944 | 9.88697 | 39848 ft | 457 kts | 307° |
| 2026-05-05 15:42 | 50.61146 | 9.81130 | 39843 ft | 457 kts | 307° |
| 2026-05-05 15:43 | 50.65546 | 9.73899 | 39844 ft | 461 kts | 315° |
| 2026-05-05 15:43 | 50.70849 | 9.68098 | 39844 ft | 467 kts | 328° |
| 2026-05-05 15:44 | 50.76895 | 9.64192 | 39666 ft | 475 kts | 341° |
| 2026-05-05 15:44 | 50.80117 | 9.63046 | 39419 ft | 476 kts | 348° |
| 2026-05-05 15:44 | 50.83411 | 9.62500 | 39168 ft | 477 kts | 355° |
| 2026-05-05 15:44 | 50.86710 | 9.62567 | 38922 ft | 478 kts | 2° |
| 2026-05-05 15:45 | 50.90020 | 9.63143 | 38843 ft | 479 kts | 5° |
| 2026-05-05 15:45 | 50.96682 | 9.64443 | 38856 ft | 482 kts | 5° |
| 2026-05-05 15:46 | 51.03337 | 9.65741 | 38862 ft | 483 kts | 5° |
| 2026-05-05 15:46 | 51.10021 | 9.67049 | 38862 ft | 483 kts | 5° |
| 2026-05-05 15:47 | 51.16663 | 9.68353 | 38861 ft | 483 kts | 4° |
| 2026-05-05 15:47 | 51.23343 | 9.69589 | 38861 ft | 482 kts | 3° |
| 2026-05-05 15:48 | 51.29978 | 9.70655 | 38862 ft | 482 kts | 3° |
| 2026-05-05 15:48 | 51.36694 | 9.71740 | 38703 ft | 485 kts | 3° |
| 2026-05-05 15:48 | 51.40037 | 9.72282 | 38451 ft | 482 kts | 3° |
| 2026-05-05 15:49 | 51.43367 | 9.72824 | 38200 ft | 480 kts | 3° |
| 2026-05-05 15:49 | 51.46679 | 9.73364 | 37951 ft | 479 kts | 2° |
| 2026-05-05 15:49 | 51.49990 | 9.73964 | 37866 ft | 479 kts | 4° |
| 2026-05-05 15:50 | 51.56630 | 9.75217 | 37869 ft | 483 kts | 4° |
| 2026-05-05 15:50 | 51.63301 | 9.76480 | 37876 ft | 484 kts | 3° |
| 2026-05-05 15:51 | 51.70012 | 9.77754 | 37881 ft | 485 kts | 3° |
| 2026-05-05 15:51 | 51.76679 | 9.79024 | 37880 ft | 484 kts | 3° |
| 2026-05-05 15:52 | 51.83374 | 9.80303 | 37878 ft | 484 kts | 3° |
| 2026-05-05 15:52 | 51.90084 | 9.81593 | 37879 ft | 484 kts | 3° |
| 2026-05-05 15:53 | 51.96759 | 9.82886 | 37879 ft | 484 kts | 3° |
| 2026-05-05 15:53 | 52.03461 | 9.84188 | 37879 ft | 484 kts | 3° |
| 2026-05-05 15:54 | 52.10073 | 9.85477 | 37880 ft | 484 kts | 3° |
| 2026-05-05 15:54 | 52.16804 | 9.86793 | 37881 ft | 484 kts | 3° |
| 2026-05-05 15:55 | 52.23500 | 9.88110 | 37889 ft | 484 kts | 4° |
| 2026-05-05 15:55 | 52.30085 | 9.90562 | 37895 ft | 488 kts | 12° |
| 2026-05-05 15:56 | 52.36617 | 9.93449 | 37899 ft | 489 kts | 12° |
| 2026-05-05 15:56 | 52.43202 | 9.96362 | 37897 ft | 488 kts | 12° |
| 2026-05-05 15:57 | 52.49700 | 9.99244 | 37897 ft | 487 kts | 12° |
| 2026-05-05 15:57 | 52.56289 | 10.02173 | 37897 ft | 487 kts | 12° |
| 2026-05-05 15:58 | 52.62788 | 10.05077 | 37898 ft | 487 kts | 12° |
| 2026-05-05 15:58 | 52.69367 | 10.08025 | 37898 ft | 487 kts | 12° |
| 2026-05-05 15:59 | 52.75890 | 10.10895 | 37896 ft | 485 kts | 8° |
| 2026-05-05 15:59 | 52.82507 | 10.11947 | 37894 ft | 477 kts | 356° |
| 2026-05-05 16:00 | 52.89154 | 10.12156 | 37896 ft | 477 kts | 356° |
| 2026-05-05 16:00 | 52.95791 | 10.12373 | 37897 ft | 477 kts | 356° |
| 2026-05-05 16:00 | 52.99116 | 10.12482 | 37745 ft | 478 kts | 356° |
| 2026-05-05 16:01 | 53.02415 | 10.12592 | 37495 ft | 475 kts | 356° |
| 2026-05-05 16:01 | 53.05696 | 10.12702 | 37246 ft | 473 kts | 356° |
| 2026-05-05 16:01 | 53.09003 | 10.12812 | 36996 ft | 472 kts | 356° |
| 2026-05-05 16:01 | 53.12293 | 10.12922 | 36741 ft | 471 kts | 356° |
| 2026-05-05 16:02 | 53.15525 | 10.13029 | 36396 ft | 471 kts | 356° |
| 2026-05-05 16:02 | 53.18796 | 10.13138 | 35998 ft | 470 kts | 356° |
| 2026-05-05 16:02 | 53.22086 | 10.13248 | 35548 ft | 470 kts | 355° |
| 2026-05-05 16:02 | 53.25338 | 10.13357 | 35104 ft | 469 kts | 355° |
| 2026-05-05 16:03 | 53.28574 | 10.13466 | 34636 ft | 470 kts | 355° |
| 2026-05-05 16:03 | 53.31856 | 10.13573 | 34010 ft | 469 kts | 354° |
| 2026-05-05 16:03 | 53.35103 | 10.13386 | 33418 ft | 463 kts | 348° |
| 2026-05-05 16:03 | 53.38235 | 10.12577 | 32806 ft | 456 kts | 341° |
| 2026-05-05 16:04 | 53.41295 | 10.11133 | 32206 ft | 451 kts | 334° |
| 2026-05-05 16:04 | 53.44139 | 10.09153 | 31581 ft | 446 kts | 327° |
| 2026-05-05 16:04 | 53.46869 | 10.06624 | 31017 ft | 443 kts | 322° |
| 2026-05-05 16:04 | 53.49485 | 10.03980 | 30453 ft | 445 kts | 322° |
| 2026-05-05 16:05 | 53.52156 | 10.01283 | 29882 ft | 447 kts | 322° |
| 2026-05-05 16:05 | 53.54799 | 9.98612 | 29311 ft | 447 kts | 322° |
| 2026-05-05 16:05 | 53.57479 | 9.95903 | 28734 ft | 444 kts | 322° |
| 2026-05-05 16:05 | 53.60096 | 9.93253 | 28168 ft | 441 kts | 322° |
| 2026-05-05 16:06 | 53.62723 | 9.90590 | 27603 ft | 438 kts | 323° |
| 2026-05-05 16:06 | 53.65315 | 9.87958 | 27044 ft | 434 kts | 323° |
| 2026-05-05 16:06 | 53.67891 | 9.85337 | 26489 ft | 431 kts | 323° |
| 2026-05-05 16:06 | 53.70454 | 9.82726 | 25937 ft | 427 kts | 323° |
| 2026-05-05 16:07 | 53.72987 | 9.80141 | 25391 ft | 424 kts | 323° |
| 2026-05-05 16:07 | 53.75509 | 9.77564 | 24846 ft | 420 kts | 323° |
| 2026-05-05 16:07 | 53.77988 | 9.75027 | 24312 ft | 417 kts | 323° |
| 2026-05-05 16:07 | 53.80467 | 9.72485 | 23776 ft | 414 kts | 323° |
| 2026-05-05 16:08 | 53.82923 | 9.69964 | 23248 ft | 411 kts | 323° |
| 2026-05-05 16:08 | 53.85370 | 9.67450 | 22719 ft | 408 kts | 324° |
| 2026-05-05 16:08 | 53.87784 | 9.64964 | 22197 ft | 405 kts | 324° |
| 2026-05-05 16:08 | 53.90159 | 9.62517 | 21685 ft | 401 kts | 324° |
| 2026-05-05 16:09 | 53.92560 | 9.60040 | 21165 ft | 398 kts | 324° |
| 2026-05-05 16:09 | 53.94907 | 9.57614 | 20663 ft | 394 kts | 324° |
| 2026-05-05 16:09 | 53.97240 | 9.55200 | 20161 ft | 391 kts | 324° |
| 2026-05-05 16:09 | 53.99533 | 9.52824 | 19671 ft | 388 kts | 324° |
| 2026-05-05 16:10 | 54.01831 | 9.50439 | 19178 ft | 385 kts | 323° |
| 2026-05-05 16:10 | 54.04105 | 9.48078 | 18689 ft | 381 kts | 324° |
| 2026-05-05 16:10 | 54.06357 | 9.45735 | 18205 ft | 378 kts | 324° |
| 2026-05-05 16:10 | 54.08585 | 9.43415 | 17728 ft | 375 kts | 324° |
| 2026-05-05 16:11 | 54.10819 | 9.41085 | 17244 ft | 373 kts | 324° |
| 2026-05-05 16:11 | 54.17363 | 9.34241 | 15829 ft | 366 kts | 323° |
| 2026-05-05 16:12 | 54.19516 | 9.31984 | 15362 ft | 363 kts | 324° |
| 2026-05-05 16:12 | 54.23799 | 9.27486 | 14434 ft | 356 kts | 324° |
| 2026-05-05 16:13 | 54.29892 | 9.21074 | 13112 ft | 331 kts | 324° |
| 2026-05-05 16:13 | 54.31841 | 9.19018 | 12691 ft | 322 kts | 324° |
| 2026-05-05 16:13 | 54.33717 | 9.17036 | 12284 ft | 314 kts | 324° |
| 2026-05-05 16:14 | 54.37290 | 9.13072 | 11496 ft | 295 kts | 316° |
| 2026-05-05 16:14 | 54.40120 | 9.08220 | 10747 ft | 281 kts | 312° |
| 2026-05-05 16:15 | 54.42800 | 9.03560 | 10050 ft | 270 kts | 313° |
| 2026-05-05 16:15 | 54.45460 | 8.98926 | 9378 ft | 272 kts | 314° |
| 2026-05-05 16:16 | 54.48107 | 8.94309 | 8685 ft | 271 kts | 314° |
| 2026-05-05 16:16 | 54.50731 | 8.89725 | 7995 ft | 268 kts | 314° |
| 2026-05-05 16:17 | 54.53350 | 8.85145 | 7307 ft | 266 kts | 315° |
| 2026-05-05 16:17 | 54.54646 | 8.82877 | 6967 ft | 265 kts | 315° |
| 2026-05-05 16:18 | 54.57208 | 8.78384 | 6295 ft | 262 kts | 315° |
| 2026-05-05 16:18 | 54.58483 | 8.76145 | 5963 ft | 258 kts | 315° |
| 2026-05-05 16:18 | 54.60952 | 8.71805 | 5206 ft | 251 kts | 316° |
| 2026-05-05 16:19 | 54.62227 | 8.69751 | 4727 ft | 250 kts | 324° |
| 2026-05-05 16:19 | 54.63636 | 8.68024 | 4331 ft | 246 kts | 327° |
| 2026-05-05 16:19 | 54.66421 | 8.64649 | 3647 ft | 245 kts | 327° |
| 2026-05-05 16:20 | 54.69094 | 8.61393 | 3242 ft | 223 kts | 327° |
| 2026-05-05 16:20 | 54.71603 | 8.58334 | 2990 ft | 214 kts | 327° |
| 2026-05-05 16:21 | 54.73908 | 8.55506 | 2995 ft | 202 kts | 327° |
| 2026-05-05 16:22 | 54.77168 | 8.51501 | 3022 ft | 173 kts | 327° |
| 2026-05-05 16:22 | 54.79045 | 8.49198 | 2727 ft | 164 kts | 327° |
| 2026-05-05 16:23 | 54.80798 | 8.47039 | 2424 ft | 149 kts | 327° |
| 2026-05-05 16:23 | 54.81634 | 8.46009 | 2104 ft | 143 kts | 328° |
| 2026-05-05 16:23 | 54.83222 | 8.44055 | 1771 ft | 136 kts | 328° |
| 2026-05-05 16:24 | 54.83996 | 8.43100 | 1594 ft | 134 kts | 328° |
| 2026-05-05 16:24 | 54.84735 | 8.42188 | 1439 ft | 128 kts | 327° |
| 2026-05-05 16:24 | 54.86128 | 8.40462 | 1088 ft | 119 kts | 328° |
| 2026-05-05 16:25 | 54.86797 | 8.39636 | 932 ft | 117 kts | 328° |
| 2026-05-05 16:25 | 54.88132 | 8.37995 | 632 ft | 117 kts | 328° |
| 2026-05-05 16:25 | 54.88794 | 8.37183 | 483 ft | 117 kts | 328° |
| 2026-05-05 16:26 | 54.90106 | 8.35533 | 150 ft | 115 kts | 328° |
| 2026-05-05 16:26 | 54.91135 | 8.34281 | 55 ft | 42 kts | 325° |
| 2026-05-05 16:27 | 54.91340 | 8.34026 | 55 ft | 33 kts | 324° |
| 2026-05-05 16:27 | 54.91514 | 8.33810 | 55 ft | 29 kts | 323° |
| 2026-05-05 16:27 | 54.91670 | 8.33617 | 55 ft | 26 kts | 324° |
| 2026-05-05 16:27 | 54.91814 | 8.33439 | 55 ft | 24 kts | 324° |
| 2026-05-05 16:28 | 54.91890 | 8.33356 | 55 ft | 10 kts | 342° |
| 2026-05-05 16:28 | 54.91937 | 8.33356 | 55 ft | 4 kts | 31° |
| 2026-05-05 16:28 | 54.91952 | 8.33418 | 55 ft | 7 kts | 84° |
| 2026-05-05 16:28 | 54.91956 | 8.33523 | 55 ft | 4 kts | 86° |
| 2026-05-05 16:29 | 54.91960 | 8.33595 | 55 ft | 7 kts | 79° |
| 2026-05-05 16:29 | 54.91985 | 8.33697 | 55 ft | 10 kts | 59° |
| 2026-05-05 16:29 | 54.92008 | 8.33829 | 55 ft | 9 kts | 84° |
| 2026-05-05 16:29 | 54.92014 | 8.33959 | 55 ft | 4 kts | 85° |
| 2026-05-05 16:30 | 54.92034 | 8.33997 | 55 ft | 4 kts | 1° |
| 2026-05-05 16:30 | 54.92050 | 8.33972 | 55 ft | 3 kts | 271° |
| 2026-05-05 16:30 | 54.92049 | 8.33955 | 55 ft | 0 kts | 260° |